Terminal Aerodrome Forecast
Issued by NWS Charleston, WV

Current Version | Previous Version | Graphics & Text | Print | Product List | Glossary On
Versions: 1 2 3 4 5 6 7 8 9 10 11 12 13 14 15 16 17 18 19 20 21 22 23 24 25 26
000
FTUS41 KRLX 312300
TAFCRW
TAF
KCRW 312339Z 0100/0124 00000KT P6SM BKN200
     FM010200 00000KT P6SM BKN110
     FM010900 00000KT P6SM BKN025
     FM011000 00000KT P6SM BKN035
     FM011900 14006KT P6SM BKN110
     FM012300 16008KT P6SM -RA OVC100=

USA.gov is the U.S. government's official web portal to all federal, state and local government web resources and services.